Time;durP1;ratioP1;P1;durP2;ratioP2;P2;SDS_P1;SDS_P2;PMS_P1;PMS_P2;Temp;Humidity;BMP_temperature;BMP_pressure;BME280_temperature;BME280_humidity;BME280_pressure;Samples;Min_cycle;Max_cycle;Signal;HPM_P1;HPM_P2
2023/11/22 01:33:47;;;;;;;;;0.00;0.00;;;;;;;;5109467;27;27917;-96
2023/11/22 01:36:15;;;;;;;;;0.00;0.00;;;;;;;;5110043;27;29812;-96
2023/11/22 01:38:40;;;;;;;;;0.00;0.00;;;;;;;;5110528;27;28730;-96
2023/11/22 01:41:05;;;;;;;;;0.00;0.00;;;;;;;;5109293;27;28527;-96
2023/11/22 01:43:31;;;;;;;;;0.00;0.00;;;;;;;;5108840;27;30928;-96
2023/11/22 01:45:56;;;;;;;;;0.00;0.00;;;;;;;;5109281;27;29063;-96
2023/11/22 01:48:21;;;;;;;;;0.00;0.00;;;;;;;;5108615;27;28361;-95
2023/11/22 01:51:20;;;;;;;;;0.00;0.00;;;;;;;;5086837;28;28463;-95
2023/11/22 01:53:47;;;;;;;;;0.00;0.00;;;;;;;;5088778;28;28895;-95
2023/11/22 01:56:12;;;;;;;;;0.00;0.00;;;;;;;;5088551;28;27936;-95
2023/11/22 01:58:37;;;;;;;;;0.00;0.00;;;;;;;;5089142;28;28819;-96
2023/11/22 02:01:04;;;;;;;;;0.00;0.00;;;;;;;;5088387;27;30286;-96
2023/11/22 02:03:30;;;;;;;;;0.00;0.00;;;;;;;;5088667;28;29232;-96
2023/11/22 02:05:55;;;;;;;;;0.00;0.00;;;;;;;;5088445;28;28370;-96
2023/11/22 02:08:20;;;;;;;;;0.00;0.00;;;;;;;;5088913;28;28519;-96
2023/11/22 02:10:49;;;;;;;;;0.00;0.00;;;;;;;;5088219;28;31082;-96
2023/11/22 02:13:14;;;;;;;;;0.00;0.00;;;;;;;;5088860;28;28921;-96
2023/11/22 02:15:39;;;;;;;;;0.00;0.00;;;;;;;;5090162;28;28456;-96
2023/11/22 02:18:06;;;;;;;;;0.00;0.00;;;;;;;;5091844;28;28545;-96
2023/11/22 02:23:07;;;;;;;;;0.00;0.00;;;;;;;;5089326;28;28512;-96
2023/11/22 02:25:33;;;;;;;;;0.00;0.00;;;;;;;;5088022;28;28841;-95
2023/11/22 02:27:58;;;;;;;;;0.00;0.00;;;;;;;;5088624;28;28485;-96
2023/11/22 02:30:25;;;;;;;;;0.00;0.00;;;;;;;;5088866;28;28481;-96
2023/11/22 02:32:50;;;;;;;;;0.00;0.00;;;;;;;;5094497;27;29789;-96
2023/11/22 02:35:17;;;;;;;;;0.00;0.00;;;;;;;;5108663;27;28644;-96
2023/11/22 02:37:45;;;;;;;;;0.00;0.00;;;;;;;;5105966;27;28551;-96
2023/11/22 02:40:20;;;;;;;;;0.00;0.00;;;;;;;;5098119;27;28520;-96
2023/11/22 02:42:48;;;;;;;;;0.00;0.00;;;;;;;;5108246;27;30192;-96
2023/11/22 02:45:14;;;;;;;;;0.00;0.00;;;;;;;;5110748;27;29094;-96
2023/11/22 02:47:39;;;;;;;;;0.00;0.00;;;;;;;;5115355;27;8795;-96
2023/11/22 02:50:05;;;;;;;;;0.00;0.00;;;;;;;;5108549;27;8855;-96
2023/11/22 02:52:30;;;;;;;;;0.00;0.00;;;;;;;;5126730;27;8819;-96
2023/11/22 02:54:56;;;;;;;;;0.00;0.00;;;;;;;;5128412;27;8853;-96
2023/11/22 02:57:21;;;;;;;;;0.00;0.00;;;;;;;;5116551;27;8898;-96
2023/11/22 02:59:46;;;;;;;;;0.00;0.00;;;;;;;;5114785;27;9587;-96
2023/11/22 03:02:12;;;;;;;;;0.00;0.00;;;;;;;;5108125;28;8924;-95
2023/11/22 03:04:38;;;;;;;;;0.00;0.00;;;;;;;;5108333;27;8810;-96
2023/11/22 03:07:03;;;;;;;;;0.00;0.00;;;;;;;;5113077;27;8803;-96
2023/11/22 03:09:29;;;;;;;;;0.00;0.00;;;;;;;;5129102;27;8831;-96
2023/11/22 03:11:55;;;;;;;;;0.00;0.00;;;;;;;;5129135;27;8819;-96
2023/11/22 03:14:21;;;;;;;;;0.00;0.00;;;;;;;;5129647;27;8807;-96
2023/11/22 03:16:47;;;;;;;;;0.00;0.00;;;;;;;;5131493;27;8755;-96
2023/11/22 03:19:13;;;;;;;;;0.00;0.00;;;;;;;;5132850;27;8842;-96
2023/11/22 03:21:38;;;;;;;;;0.00;0.00;;;;;;;;5132742;27;8827;-96
2023/11/22 03:24:04;;;;;;;;;0.00;0.00;;;;;;;;5132043;27;8838;-96
2023/11/22 03:26:29;;;;;;;;;0.00;0.00;;;;;;;;5129402;27;8838;-96
2023/11/22 03:31:28;;;;;;;;;0.00;0.00;;;;;;;;5129624;27;13420;-96
2023/11/22 03:33:54;;;;;;;;;0.00;0.00;;;;;;;;5108866;28;8929;-96
2023/11/22 03:36:19;;;;;;;;;0.00;0.00;;;;;;;;5108657;28;8851;-96
2023/11/22 03:38:45;;;;;;;;;0.00;0.00;;;;;;;;5109186;28;8825;-96
2023/11/22 03:41:10;;;;;;;;;0.00;0.00;;;;;;;;5105295;28;8851;-96
2023/11/22 03:43:35;;;;;;;;;0.00;0.00;;;;;;;;5088522;28;8827;-96
2023/11/22 03:46:00;;;;;;;;;0.00;0.00;;;;;;;;5088718;28;8922;-96
2023/11/22 03:48:26;;;;;;;;;0.00;0.00;;;;;;;;5088322;28;8803;-96
2023/11/22 03:50:51;;;;;;;;;0.00;0.00;;;;;;;;5103360;28;8821;-96
2023/11/22 03:53:16;;;;;;;;;0.00;0.00;;;;;;;;5110522;27;8898;-96
